createdAt,value
2018-06-03T00:00:03.014Z,18.21
2018-06-03T00:01:02.931Z,18.24
2018-06-03T00:02:56.216Z,18.20
2018-06-03T00:03:56.154Z,18.16
2018-06-03T00:05:49.465Z,18.19
2018-06-03T00:06:49.375Z,18.19
2018-06-03T00:08:42.672Z,18.10
2018-06-03T00:09:42.612Z,18.06
2018-06-03T00:11:35.881Z,18.03
2018-06-03T00:12:35.821Z,18.05
2018-06-03T00:14:29.119Z,18.13
2018-06-03T00:15:29.039Z,18.14
2018-06-03T00:17:22.318Z,18.11
2018-06-03T00:18:22.255Z,18.10
2018-06-03T00:20:15.559Z,18.06
2018-06-03T00:21:15.477Z,18.23
2018-06-03T00:23:08.757Z,18.19
2018-06-03T00:24:08.696Z,18.21
2018-06-03T00:26:02.007Z,18.16
2018-06-03T00:27:01.919Z,18.17
2018-06-03T00:28:56.224Z,18.21
2018-06-03T00:29:56.141Z,18.19
2018-06-03T00:31:49.426Z,18.03
2018-06-03T00:32:49.365Z,18.03
2018-06-03T00:34:43.669Z,18.08
2018-06-03T00:35:43.585Z,18.11
2018-06-03T00:37:36.862Z,18.13
2018-06-03T00:38:36.800Z,18.13
2018-06-03T00:40:31.105Z,18.13
2018-06-03T00:41:31.028Z,18.14
2018-06-03T00:43:25.400Z,18.14
2018-06-03T00:44:25.275Z,18.10
2018-06-03T00:46:18.553Z,18.17
2018-06-03T00:47:18.494Z,18.23
2018-06-03T00:49:11.795Z,18.23
2018-06-03T00:50:11.715Z,18.20
2018-06-03T00:52:05.004Z,18.13
2018-06-03T00:53:04.936Z,18.16
2018-06-03T00:54:58.841Z,18.13
2018-06-03T00:55:58.176Z,18.21
2018-06-03T00:57:52.445Z,18.20
2018-06-03T00:58:52.384Z,18.23
2018-06-03T01:00:45.688Z,18.20
2018-06-03T01:01:46.259Z,18.23
2018-06-03T01:03:38.914Z,18.13
2018-06-03T01:04:38.831Z,18.19
2018-06-03T01:06:32.111Z,18.23
2018-06-03T01:07:32.053Z,18.19
2018-06-03T01:09:25.374Z,18.13
2018-06-03T01:10:25.269Z,18.06
2018-06-03T01:12:18.551Z,18.23
2018-06-03T01:13:18.490Z,18.21
2018-06-03T01:15:11.789Z,18.20
2018-06-03T01:16:11.709Z,18.24
2018-06-03T01:18:04.983Z,18.17
2018-06-03T01:19:04.924Z,18.16
2018-06-03T01:20:58.324Z,18.21
2018-06-03T01:21:58.153Z,18.14
2018-06-03T01:23:50.959Z,18.26
2018-06-03T01:24:50.873Z,18.17
2018-06-03T01:26:44.160Z,18.19
2018-06-03T01:27:44.099Z,18.26
2018-06-03T01:29:38.250Z,18.16
2018-06-03T01:30:38.171Z,18.21
2018-06-03T01:32:31.452Z,18.11
2018-06-03T01:33:31.393Z,18.11
2018-06-03T01:35:25.694Z,18.08
2018-06-03T01:36:25.611Z,18.05
2018-06-03T01:38:18.885Z,18.20
2018-06-03T01:39:18.824Z,18.21
2018-06-03T01:41:12.125Z,18.23
2018-06-03T01:42:12.047Z,18.21
2018-06-03T01:44:05.349Z,18.24
2018-06-03T01:45:05.270Z,18.19
2018-06-03T01:46:58.557Z,18.19
2018-06-03T01:47:58.493Z,18.23
2018-06-03T01:49:51.803Z,18.23
2018-06-03T01:50:51.725Z,18.19
2018-06-03T01:52:45.006Z,18.23
2018-06-03T01:53:44.946Z,18.24
2018-06-03T01:55:39.247Z,18.19
2018-06-03T01:56:39.167Z,18.20
2018-06-03T01:58:32.448Z,18.26
2018-06-03T01:59:32.388Z,18.19
2018-06-03T02:01:25.695Z,18.23
2018-06-03T02:02:25.634Z,18.16
2018-06-03T02:04:19.019Z,18.10
2018-06-03T02:05:18.836Z,18.20
2018-06-03T02:07:12.125Z,18.20
2018-06-03T02:08:12.066Z,18.19
2018-06-03T02:10:05.366Z,18.19
2018-06-03T02:11:05.307Z,18.23
2018-06-03T02:12:58.566Z,18.23
2018-06-03T02:13:58.508Z,18.21
2018-06-03T02:15:52.417Z,18.16
2018-06-03T02:16:51.726Z,18.24
2018-06-03T02:18:45.002Z,18.17
2018-06-03T02:19:44.947Z,18.24
2018-06-03T02:21:39.248Z,18.03
2018-06-03T02:22:39.177Z,17.95
2018-06-03T02:24:32.569Z,18.08
2018-06-03T02:25:32.389Z,18.02
2018-06-03T02:27:25.680Z,18.03
2018-06-03T02:28:25.617Z,17.99
2018-06-03T02:30:19.025Z,17.88
2018-06-03T02:31:18.846Z,17.83
2018-06-03T02:33:13.121Z,17.87
2018-06-03T02:34:13.060Z,17.76
2018-06-03T02:36:06.363Z,17.80
2018-06-03T02:37:06.281Z,17.80
2018-06-03T02:39:00.564Z,17.81
2018-06-03T02:40:00.497Z,17.84
2018-06-03T02:41:54.805Z,17.84
2018-06-03T02:42:54.720Z,17.92
2018-06-03T02:44:48.625Z,17.95
2018-06-03T02:45:47.949Z,17.90
2018-06-03T02:47:41.220Z,17.94
2018-06-03T02:48:41.161Z,18.02
2018-06-03T02:50:34.459Z,18.11
2018-06-03T02:51:34.376Z,18.06
2018-06-03T02:53:27.664Z,18.03
2018-06-03T02:54:27.598Z,18.11
2018-06-03T02:56:20.891Z,18.08
2018-06-03T02:57:20.820Z,18.05
2018-06-03T02:59:14.111Z,18.01
2018-06-03T03:00:14.040Z,18.10
2018-06-03T03:02:07.349Z,18.01
2018-06-03T03:03:07.268Z,17.94
2018-06-03T03:05:00.570Z,17.90
2018-06-03T03:06:00.487Z,18.03
2018-06-03T03:07:53.766Z,17.96
2018-06-03T03:08:53.730Z,17.96
2018-06-03T03:10:48.116Z,17.92
2018-06-03T03:11:47.929Z,17.95
2018-06-03T03:13:41.215Z,17.95
2018-06-03T03:14:41.151Z,17.98
2018-06-03T03:16:35.455Z,17.99
2018-06-03T03:17:35.388Z,17.94
2018-06-03T03:19:29.654Z,17.90
2018-06-03T03:20:29.595Z,17.88
2018-06-03T03:22:23.894Z,17.79
2018-06-03T03:23:23.814Z,17.81
2018-06-03T03:25:17.270Z,17.76
2018-06-03T03:26:17.044Z,17.81
2018-06-03T03:28:10.317Z,17.84
2018-06-03T03:29:10.251Z,17.90
2018-06-03T03:31:04.551Z,17.87
2018-06-03T03:32:04.472Z,17.90
2018-06-03T03:33:57.266Z,17.92
2018-06-03T03:34:57.201Z,17.86
2018-06-03T03:36:50.510Z,17.95
2018-06-03T03:37:50.450Z,17.92
2018-06-03T03:39:43.816Z,17.92
2018-06-03T03:40:43.645Z,17.95
2018-06-03T03:42:37.960Z,17.90
2018-06-03T03:43:37.884Z,17.88
2018-06-03T03:45:31.171Z,17.94
2018-06-03T03:46:31.091Z,17.90
2018-06-03T03:48:26.371Z,17.99
2018-06-03T03:49:26.332Z,18.01
2018-06-03T03:51:21.217Z,18.01
2018-06-03T03:52:20.528Z,17.98
2018-06-03T03:54:13.916Z,17.95
2018-06-03T03:55:13.763Z,17.99
2018-06-03T03:57:07.060Z,18.02
2018-06-03T03:58:06.979Z,18.10
2018-06-03T04:00:01.339Z,18.13
2018-06-03T04:01:01.273Z,18.17
2018-06-03T04:02:55.679Z,18.20
2018-06-03T04:03:55.493Z,18.23
2018-06-03T04:05:48.907Z,18.29
2018-06-03T04:06:48.713Z,18.20
2018-06-03T04:08:41.995Z,18.23
2018-06-03T04:09:41.935Z,18.23
2018-06-03T04:11:36.236Z,18.16
2018-06-03T04:12:36.156Z,18.31
2018-06-03T04:14:30.438Z,18.32
2018-06-03T04:15:30.376Z,18.34
2018-06-03T04:17:23.683Z,18.38
2018-06-03T04:18:23.600Z,18.29
2018-06-03T04:20:16.984Z,18.32
2018-06-03T04:21:16.821Z,18.32
2018-06-03T04:23:11.123Z,18.35
2018-06-03T04:24:11.042Z,18.42
2018-06-03T04:26:04.350Z,18.42
2018-06-03T04:27:04.276Z,18.47
2018-06-03T04:28:57.658Z,18.49
2018-06-03T04:29:57.495Z,18.42
2018-06-03T04:31:50.902Z,18.49
2018-06-03T04:32:50.718Z,18.51
2018-06-03T04:34:44.999Z,18.65
2018-06-03T04:35:44.942Z,18.56
2018-06-03T04:37:38.234Z,18.65
2018-06-03T04:38:38.152Z,18.72
2018-06-03T04:40:32.436Z,18.69
2018-06-03T04:41:32.376Z,18.65
2018-06-03T04:43:26.682Z,18.66
2018-06-03T04:44:26.600Z,18.47
2018-06-03T04:46:19.900Z,18.51
2018-06-03T04:47:19.829Z,18.47
2018-06-03T04:49:13.107Z,18.60
2018-06-03T04:50:13.047Z,18.56
2018-06-03T04:52:06.454Z,18.65
2018-06-03T04:53:06.278Z,18.54
2018-06-03T04:54:59.699Z,18.63
2018-06-03T04:55:59.490Z,18.57
2018-06-03T04:57:52.799Z,18.69
2018-06-03T04:58:52.726Z,18.68
2018-06-03T05:00:46.028Z,18.86
2018-06-03T05:01:45.950Z,18.81
2018-06-03T05:03:39.267Z,18.84
2018-06-03T05:04:39.172Z,18.94
2018-06-03T05:06:32.477Z,18.86
2018-06-03T05:07:32.397Z,18.91
2018-06-03T05:09:25.801Z,18.82
2018-06-03T05:10:25.632Z,18.74
2018-06-03T05:12:19.028Z,18.79
2018-06-03T05:13:18.847Z,18.78
2018-06-03T05:15:12.135Z,18.93
2018-06-03T05:16:12.072Z,18.78
2018-06-03T05:18:05.374Z,18.75
2018-06-03T05:19:05.285Z,18.75
2018-06-03T05:20:58.673Z,18.84
2018-06-03T05:21:58.507Z,18.81
2018-06-03T05:23:52.829Z,18.87
2018-06-03T05:24:52.732Z,18.91
2018-06-03T05:26:47.037Z,18.91
2018-06-03T05:27:46.957Z,18.87
2018-06-03T05:29:40.243Z,18.89
2018-06-03T05:30:40.187Z,18.84
2018-06-03T05:32:33.498Z,18.86
2018-06-03T05:33:33.411Z,18.89
2018-06-03T05:35:27.801Z,19.00
2018-06-03T05:36:27.637Z,18.93
2018-06-03T05:38:20.935Z,18.78
2018-06-03T05:39:20.858Z,18.63
2018-06-03T05:41:14.270Z,18.68
2018-06-03T05:42:14.081Z,18.84
2018-06-03T05:44:07.369Z,18.94
2018-06-03T05:45:07.308Z,18.89
2018-06-03T05:47:00.619Z,18.90
2018-06-03T05:48:00.535Z,19.05
2018-06-03T05:49:53.828Z,19.23
2018-06-03T05:50:53.768Z,19.28
2018-06-03T05:52:47.075Z,19.30
2018-06-03T05:53:46.990Z,19.30
2018-06-03T05:55:40.381Z,19.23
2018-06-03T05:56:40.219Z,19.23
2018-06-03T05:58:33.540Z,19.28
2018-06-03T05:59:33.450Z,19.32
2018-06-03T06:01:26.780Z,19.30
2018-06-03T06:02:26.686Z,19.31
2018-06-03T06:04:20.966Z,19.37
2018-06-03T06:05:20.911Z,19.43
2018-06-03T06:07:14.315Z,19.46
2018-06-03T06:08:14.136Z,19.60
2018-06-03T06:10:07.421Z,19.35
2018-06-03T06:11:07.358Z,19.40
2018-06-03T06:13:00.664Z,19.46
2018-06-03T06:14:00.594Z,19.43
2018-06-03T06:15:53.873Z,19.42
2018-06-03T06:16:53.816Z,19.47
2018-06-03T06:18:47.222Z,19.60
2018-06-03T06:19:47.043Z,19.61
2018-06-03T06:21:40.346Z,19.75
2018-06-03T06:22:40.268Z,19.64
2018-06-03T06:24:33.557Z,19.55
2018-06-03T06:25:33.496Z,19.55
2018-06-03T06:27:26.804Z,19.71
2018-06-03T06:28:26.732Z,19.82
2018-06-03T06:30:20.617Z,20.20
2018-06-03T06:31:19.953Z,20.46
2018-06-03T06:33:14.265Z,20.64
2018-06-03T06:34:14.188Z,20.63
2018-06-03T06:36:07.477Z,21.03
2018-06-03T06:37:07.420Z,21.38
2018-06-03T06:39:00.728Z,21.08
2018-06-03T06:40:00.654Z,21.41
2018-06-03T06:41:53.970Z,21.70
2018-06-03T06:42:53.891Z,21.83
2018-06-03T06:44:47.184Z,21.73
2018-06-03T06:45:47.131Z,21.55
2018-06-03T06:47:40.539Z,21.41
2018-06-03T06:48:40.358Z,21.56
2018-06-03T06:50:34.657Z,21.16
2018-06-03T06:51:34.601Z,20.85
2018-06-03T06:53:27.905Z,21.09
2018-06-03T06:54:27.835Z,21.18
2018-06-03T06:56:21.129Z,20.85
2018-06-03T06:57:21.081Z,20.91
2018-06-03T06:59:14.389Z,20.82
2018-06-03T07:00:14.363Z,20.64
2018-06-03T07:02:08.729Z,20.88
2018-06-03T07:03:08.395Z,20.96
2018-06-03T07:05:01.692Z,20.82
2018-06-03T07:06:01.634Z,20.81
2018-06-03T07:07:54.948Z,20.54
2018-06-03T07:08:54.874Z,20.49
2018-06-03T07:10:48.261Z,20.74
2018-06-03T07:11:48.106Z,20.83
2018-06-03T07:13:41.417Z,20.88
2018-06-03T07:14:41.343Z,20.93
2018-06-03T07:16:34.634Z,21.06
2018-06-03T07:17:34.574Z,21.12
2018-06-03T07:19:27.882Z,21.13
2018-06-03T07:20:27.813Z,21.12
2018-06-03T07:22:22.216Z,21.01
2018-06-03T07:23:22.120Z,21.06
2018-06-03T07:25:15.347Z,21.08
2018-06-03T07:26:15.283Z,21.21
2018-06-03T07:28:08.597Z,21.31
2018-06-03T07:29:08.535Z,21.06
2018-06-03T07:31:02.810Z,21.06
2018-06-03T07:32:02.774Z,21.06
2018-06-03T07:33:56.687Z,21.25
2018-06-03T07:34:56.004Z,21.31
2018-06-03T07:36:50.292Z,21.41
2018-06-03T07:37:50.242Z,21.56
2018-06-03T07:39:43.548Z,21.80
2018-06-03T07:40:43.488Z,21.82
2018-06-03T07:42:36.783Z,21.89
2018-06-03T07:43:36.756Z,21.73
2018-06-03T07:45:30.000Z,21.52
2018-06-03T07:46:29.961Z,21.46
2018-06-03T07:48:23.257Z,21.49
2018-06-03T07:49:23.188Z,21.59
2018-06-03T07:51:16.469Z,21.73
2018-06-03T07:52:16.416Z,21.45
2018-06-03T07:54:09.727Z,21.43
2018-06-03T07:55:09.650Z,21.43
2018-06-03T07:57:02.977Z,21.66
2018-06-03T07:58:02.887Z,21.77
2018-06-03T07:59:57.192Z,21.68
2018-06-03T08:00:57.117Z,21.55
2018-06-03T08:02:50.432Z,21.71
2018-06-03T08:03:50.355Z,21.51
2018-06-03T08:05:43.642Z,21.41
2018-06-03T08:06:43.589Z,21.55
2018-06-03T08:08:36.904Z,21.67
2018-06-03T08:09:36.827Z,21.71
2018-06-03T08:11:30.120Z,21.78
2018-06-03T08:12:30.065Z,21.73
2018-06-03T08:14:23.383Z,21.67
2018-06-03T08:15:23.319Z,21.64
2018-06-03T08:17:16.603Z,21.89
2018-06-03T08:18:16.549Z,21.93
2018-06-03T08:20:10.463Z,21.70
2018-06-03T08:21:09.794Z,21.80
2018-06-03T08:23:03.112Z,21.89
2018-06-03T08:24:03.035Z,21.83
2018-06-03T08:25:56.325Z,21.70
2018-06-03T08:26:56.270Z,21.73
2018-06-03T08:28:50.593Z,21.77
2018-06-03T08:29:50.574Z,21.78
2018-06-03T08:31:44.394Z,21.74
2018-06-03T08:32:43.747Z,21.77
2018-06-03T08:34:37.056Z,21.52
2018-06-03T08:35:36.980Z,21.28
2018-06-03T08:37:30.270Z,21.09
2018-06-03T08:38:30.213Z,21.16
2018-06-03T08:40:24.513Z,21.09
2018-06-03T08:41:24.436Z,21.16
2018-06-03T08:43:17.748Z,21.06
2018-06-03T08:44:17.670Z,20.91
2018-06-03T08:46:10.947Z,20.86
2018-06-03T08:47:10.894Z,20.86
2018-06-03T08:49:04.199Z,20.74
2018-06-03T08:50:04.126Z,20.74
2018-06-03T08:51:57.409Z,20.83
2018-06-03T08:52:57.350Z,20.88
2018-06-03T08:54:50.655Z,20.97
2018-06-03T08:55:50.580Z,20.91
2018-06-03T08:57:43.858Z,20.97
2018-06-03T08:58:43.802Z,20.88
2018-06-03T09:00:37.118Z,21.00
2018-06-03T09:01:37.041Z,20.96
2018-06-03T09:03:30.348Z,20.86
2018-06-03T09:04:30.271Z,21.12
2018-06-03T09:06:23.560Z,21.31
2018-06-03T09:07:23.502Z,21.41
2018-06-03T09:09:16.809Z,21.30
2018-06-03T09:10:16.735Z,21.43
2018-06-03T09:12:10.024Z,21.51
2018-06-03T09:13:09.989Z,21.43
2018-06-03T09:15:03.352Z,21.43
2018-06-03T09:16:03.279Z,21.40
2018-06-03T09:17:56.559Z,21.22
2018-06-03T09:18:56.503Z,21.23
2018-06-03T09:20:49.810Z,21.06
2018-06-03T09:21:49.732Z,20.83
2018-06-03T09:23:43.142Z,20.51
2018-06-03T09:24:42.977Z,20.49
2018-06-03T09:26:36.267Z,20.71
2018-06-03T09:27:36.211Z,20.66
2018-06-03T09:29:29.035Z,20.68
2018-06-03T09:30:28.945Z,20.64
2018-06-03T09:32:22.335Z,20.57
2018-06-03T09:33:22.183Z,20.56
2018-06-03T09:35:15.484Z,20.71
2018-06-03T09:36:15.419Z,20.81
2018-06-03T09:38:08.696Z,20.74
2018-06-03T09:39:08.639Z,20.68
2018-06-03T09:41:01.940Z,20.88
2018-06-03T09:42:01.875Z,21.04
2018-06-03T09:43:56.183Z,21.23
2018-06-03T09:44:56.106Z,21.37
2018-06-03T09:46:49.401Z,21.62
2018-06-03T09:47:49.338Z,21.66
2018-06-03T09:49:43.653Z,22.11
2018-06-03T09:50:43.570Z,22.24
2018-06-03T09:52:36.869Z,22.84
2018-06-03T09:53:36.834Z,23.42
2018-06-03T09:55:30.116Z,23.96
2018-06-03T09:56:30.041Z,23.96
2018-06-03T09:58:24.328Z,24.49
2018-06-03T09:59:24.273Z,24.66
2018-06-03T10:01:18.584Z,25.01
2018-06-03T10:02:18.528Z,24.87
2018-06-03T10:04:11.923Z,24.59
2018-06-03T10:05:11.744Z,23.94
2018-06-03T10:07:05.021Z,24.36
2018-06-03T10:08:04.977Z,24.63
2018-06-03T10:09:59.372Z,24.55
2018-06-03T10:10:59.285Z,24.51
2018-06-03T10:12:53.585Z,24.33
2018-06-03T10:13:53.517Z,24.70
2018-06-03T10:15:46.819Z,23.96
2018-06-03T10:16:46.760Z,23.66
2018-06-03T10:18:40.042Z,23.57
2018-06-03T10:19:39.984Z,23.63
2018-06-03T10:21:33.423Z,23.84
2018-06-03T10:22:33.281Z,24.14
2018-06-03T10:24:26.589Z,24.59
2018-06-03T10:25:26.514Z,24.18
2018-06-03T10:27:20.801Z,23.12
2018-06-03T10:28:20.749Z,23.06
2018-06-03T10:30:14.160Z,22.73
2018-06-03T10:31:13.978Z,22.67
2018-06-03T10:33:07.334Z,23.03
2018-06-03T10:34:07.283Z,23.18
2018-06-03T10:36:00.580Z,22.78
2018-06-03T10:37:00.509Z,22.45
2018-06-03T10:38:53.903Z,22.67
2018-06-03T10:39:53.748Z,23.00
2018-06-03T10:41:48.156Z,22.51
2018-06-03T10:42:47.997Z,22.33
2018-06-03T10:44:41.360Z,22.46
2018-06-03T10:45:41.284Z,22.61
2018-06-03T10:47:34.574Z,22.94
2018-06-03T10:48:34.525Z,23.26
2018-06-03T10:50:27.949Z,23.29
2018-06-03T10:51:27.762Z,23.92
2018-06-03T10:53:21.044Z,25.08
2018-06-03T10:54:21.034Z,25.56
2018-06-03T10:56:14.297Z,26.32
2018-06-03T10:57:14.217Z,26.64
2018-06-03T10:59:07.503Z,26.24
2018-06-03T11:00:07.453Z,25.52
2018-06-03T11:02:00.278Z,25.23
2018-06-03T11:03:00.206Z,24.49
2018-06-03T11:04:53.508Z,23.99
2018-06-03T11:05:53.437Z,24.26
2018-06-03T11:07:46.728Z,25.32
2018-06-03T11:08:46.687Z,25.07
2018-06-03T11:10:39.999Z,25.84
2018-06-03T11:11:39.927Z,25.99
2018-06-03T11:13:33.325Z,25.75
2018-06-03T11:14:33.168Z,25.86
2018-06-03T11:16:27.479Z,25.89
2018-06-03T11:17:27.408Z,24.69
2018-06-03T11:19:20.700Z,24.49
2018-06-03T11:20:20.659Z,25.05
2018-06-03T11:22:14.957Z,25.52
2018-06-03T11:23:14.888Z,24.64
2018-06-03T11:25:09.197Z,25.14
2018-06-03T11:26:09.127Z,25.60
2018-06-03T11:28:02.412Z,25.86
2018-06-03T11:29:02.364Z,25.59
2018-06-03T11:30:55.686Z,25.12
2018-06-03T11:31:55.600Z,25.08
2018-06-03T11:33:48.917Z,25.15
2018-06-03T11:34:48.848Z,25.32
2018-06-03T11:36:42.187Z,25.01
2018-06-03T11:37:42.115Z,24.46
2018-06-03T11:39:36.403Z,24.46
2018-06-03T11:40:36.351Z,24.59
2018-06-03T11:42:29.684Z,25.00
2018-06-03T11:43:29.607Z,25.09
2018-06-03T11:45:22.925Z,24.59
2018-06-03T11:46:22.847Z,24.70
2018-06-03T11:48:16.135Z,25.17
2018-06-03T11:49:16.092Z,25.29
2018-06-03T11:51:09.402Z,25.30
2018-06-03T11:52:09.322Z,25.17
2018-06-03T11:54:03.609Z,24.74
2018-06-03T11:55:03.560Z,25.02
2018-06-03T11:56:56.865Z,24.93
2018-06-03T11:57:56.800Z,24.94
2018-06-03T11:59:50.189Z,25.23
2018-06-03T12:00:50.027Z,25.37
2018-06-03T12:02:43.354Z,25.29
2018-06-03T12:03:43.278Z,25.45
2018-06-03T12:05:36.588Z,25.14
2018-06-03T12:06:36.508Z,24.45
2018-06-03T12:08:29.804Z,23.74
2018-06-03T12:09:29.750Z,23.52
2018-06-03T12:11:23.055Z,23.62
2018-06-03T12:12:22.985Z,23.87
2018-06-03T12:14:16.268Z,24.39
2018-06-03T12:15:16.234Z,24.44
2018-06-03T12:17:09.521Z,24.66
2018-06-03T12:18:09.446Z,25.00
2018-06-03T12:20:02.862Z,25.01
2018-06-03T12:21:02.692Z,24.52
2018-06-03T12:22:55.993Z,24.51
2018-06-03T12:23:55.925Z,24.69
2018-06-03T12:25:49.224Z,25.09
2018-06-03T12:26:49.153Z,25.24
2018-06-03T12:28:43.568Z,25.39
2018-06-03T12:29:43.398Z,25.52
2018-06-03T12:31:36.721Z,25.59
2018-06-03T12:32:36.652Z,25.41
2018-06-03T12:34:29.914Z,25.04
2018-06-03T12:35:29.857Z,24.86
2018-06-03T12:37:23.163Z,24.29
2018-06-03T12:38:23.090Z,23.94
2018-06-03T12:40:16.515Z,23.72
2018-06-03T12:41:16.335Z,23.85
2018-06-03T12:43:09.620Z,23.94
2018-06-03T12:44:09.575Z,23.59
2018-06-03T12:46:02.871Z,23.62
2018-06-03T12:47:02.796Z,23.74
2018-06-03T12:48:56.093Z,24.02
2018-06-03T12:49:56.025Z,24.12
2018-06-03T12:51:50.332Z,24.49
2018-06-03T12:52:50.254Z,24.33
2018-06-03T12:54:43.537Z,24.36
2018-06-03T12:55:43.479Z,24.39
2018-06-03T12:57:36.786Z,24.33
2018-06-03T12:58:36.709Z,24.27
2018-06-03T13:00:31.123Z,24.27
2018-06-03T13:01:30.938Z,24.00
2018-06-03T13:03:24.329Z,23.53
2018-06-03T13:04:24.175Z,23.81
2018-06-03T13:06:17.476Z,23.70
2018-06-03T13:07:17.401Z,23.75
2018-06-03T13:09:11.707Z,23.87
2018-06-03T13:10:11.649Z,24.09
2018-06-03T13:12:05.972Z,24.49
2018-06-03T13:13:05.880Z,24.64
2018-06-03T13:14:59.179Z,24.33
2018-06-03T13:15:59.138Z,24.22
2018-06-03T13:17:52.535Z,24.14
2018-06-03T13:18:52.387Z,24.21
2018-06-03T13:20:45.663Z,24.34
2018-06-03T13:21:45.594Z,24.48
2018-06-03T13:23:38.888Z,24.32
2018-06-03T13:24:38.832Z,24.34
2018-06-03T13:26:32.142Z,24.33
2018-06-03T13:27:32.069Z,24.30
2018-06-03T13:29:26.361Z,24.45
2018-06-03T13:30:26.309Z,24.70
2018-06-03T13:32:19.621Z,24.82
2018-06-03T13:33:19.547Z,24.87
2018-06-03T13:35:13.960Z,24.71
2018-06-03T13:36:13.788Z,24.86
2018-06-03T13:38:08.196Z,24.44
2018-06-03T13:39:08.019Z,24.21
2018-06-03T13:41:02.380Z,24.32
2018-06-03T13:42:02.251Z,24.63
2018-06-03T13:43:55.543Z,24.97
2018-06-03T13:44:55.486Z,25.01
2018-06-03T13:46:49.899Z,25.14
2018-06-03T13:47:49.742Z,24.89
2018-06-03T13:49:44.031Z,24.48
2018-06-03T13:50:43.972Z,24.52
2018-06-03T13:52:37.357Z,24.56
2018-06-03T13:53:37.274Z,24.52
2018-06-03T13:55:31.674Z,24.46
2018-06-03T13:56:31.518Z,24.75
2018-06-03T13:58:24.832Z,24.93
2018-06-03T13:59:24.760Z,25.05
2018-06-03T14:01:18.061Z,25.04
2018-06-03T14:02:17.993Z,25.17
2018-06-03T14:04:11.345Z,24.97
2018-06-03T14:05:11.271Z,24.80
2018-06-03T14:07:04.627Z,25.01
2018-06-03T14:08:04.528Z,25.01
2018-06-03T14:09:57.827Z,25.17
2018-06-03T14:10:57.766Z,25.08
2018-06-03T14:12:51.108Z,24.12
2018-06-03T14:13:51.014Z,24.12
2018-06-03T14:15:44.311Z,24.49
2018-06-03T14:16:44.257Z,24.82
2018-06-03T14:18:37.573Z,24.59
2018-06-03T14:19:37.502Z,24.40
2018-06-03T14:21:31.828Z,24.78
2018-06-03T14:22:31.751Z,25.01
2018-06-03T14:24:25.068Z,25.09
2018-06-03T14:25:25.017Z,25.04
2018-06-03T14:27:18.328Z,25.14
2018-06-03T14:28:18.249Z,25.27
2018-06-03T14:30:11.645Z,25.39
2018-06-03T14:31:11.496Z,25.23
2018-06-03T14:33:05.807Z,24.93
2018-06-03T14:34:05.733Z,25.07
2018-06-03T14:35:59.027Z,25.20
2018-06-03T14:36:58.971Z,25.27
2018-06-03T14:38:52.289Z,25.01
2018-06-03T14:39:52.214Z,24.94
2018-06-03T14:41:45.547Z,24.67
2018-06-03T14:42:45.457Z,24.21
2018-06-03T14:44:39.758Z,23.94
2018-06-03T14:45:39.826Z,24.14
2018-06-03T14:47:33.131Z,24.29
2018-06-03T14:48:32.923Z,24.34
2018-06-03T14:50:27.346Z,24.64
2018-06-03T14:51:27.186Z,24.74
2018-06-03T14:53:21.087Z,24.24
2018-06-03T14:54:20.406Z,24.17
2018-06-03T14:56:13.694Z,24.51
2018-06-03T14:57:13.636Z,24.24
2018-06-03T14:59:06.903Z,24.19
2018-06-03T15:00:06.832Z,24.45
2018-06-03T15:02:01.140Z,24.97
2018-06-03T15:03:01.068Z,25.12
2018-06-03T15:04:54.363Z,24.64
2018-06-03T15:05:54.305Z,24.66
2018-06-03T15:07:47.621Z,24.48
2018-06-03T15:08:47.546Z,24.45
2018-06-03T15:10:40.937Z,24.64
2018-06-03T15:11:40.781Z,24.51
2018-06-03T15:13:34.102Z,24.67
2018-06-03T15:14:34.024Z,24.67
2018-06-03T15:16:27.316Z,24.87
2018-06-03T15:17:27.265Z,24.66
2018-06-03T15:19:20.588Z,24.48
2018-06-03T15:20:20.520Z,24.56
2018-06-03T15:22:13.939Z,24.66
2018-06-03T15:23:13.773Z,24.61
2018-06-03T15:25:07.068Z,24.52
2018-06-03T15:26:07.022Z,24.59
2018-06-03T15:28:00.325Z,24.85
2018-06-03T15:29:00.253Z,24.67
2018-06-03T15:30:53.649Z,24.80
2018-06-03T15:31:53.519Z,24.97
2018-06-03T15:33:46.837Z,24.59
2018-06-03T15:34:46.744Z,24.33
2018-06-03T15:36:40.033Z,24.49
2018-06-03T15:37:39.981Z,24.59
2018-06-03T15:39:33.355Z,24.70
2018-06-03T15:40:33.286Z,24.74
2018-06-03T15:42:27.589Z,24.90
2018-06-03T15:43:27.513Z,24.96
2018-06-03T15:45:20.808Z,24.94
2018-06-03T15:46:20.744Z,25.04
2018-06-03T15:48:14.049Z,24.92
2018-06-03T15:49:13.983Z,24.97
2018-06-03T15:51:07.346Z,25.02
2018-06-03T15:52:07.294Z,25.05
2018-06-03T15:54:00.704Z,24.93
2018-06-03T15:55:00.526Z,24.55
2018-06-03T15:56:54.960Z,24.64
2018-06-03T15:57:54.775Z,24.46
2018-06-03T15:59:48.073Z,24.49
2018-06-03T16:00:48.023Z,24.52
2018-06-03T16:02:42.330Z,24.71
2018-06-03T16:03:42.255Z,24.71
2018-06-03T16:05:35.586Z,24.69
2018-06-03T16:06:35.524Z,24.82
2018-06-03T16:08:29.849Z,24.64
2018-06-03T16:09:29.812Z,24.63
2018-06-03T16:11:23.045Z,24.67
2018-06-03T16:12:22.992Z,24.74
2018-06-03T16:14:16.404Z,24.55
2018-06-03T16:15:16.233Z,24.54
2018-06-03T16:17:09.517Z,24.49
2018-06-03T16:18:09.462Z,24.66
2018-06-03T16:20:02.769Z,24.75
2018-06-03T16:21:02.703Z,24.86
2018-06-03T16:22:56.000Z,25.00
2018-06-03T16:23:55.931Z,24.97
2018-06-03T16:25:49.208Z,24.86
2018-06-03T16:26:49.154Z,24.92
2018-06-03T16:28:44.066Z,24.86
2018-06-03T16:29:43.385Z,24.77
2018-06-03T16:31:36.686Z,24.44
2018-06-03T16:32:36.620Z,24.52
2018-06-03T16:34:31.031Z,24.52
2018-06-03T16:35:30.839Z,24.44
2018-06-03T16:37:24.154Z,24.19
2018-06-03T16:38:24.088Z,24.21
2018-06-03T16:40:17.393Z,24.48
2018-06-03T16:41:17.311Z,24.44
2018-06-03T16:43:10.663Z,24.27
2018-06-03T16:44:10.538Z,24.40
2018-06-03T16:46:03.931Z,24.37
2018-06-03T16:47:03.766Z,24.32
2018-06-03T16:48:57.079Z,24.46
2018-06-03T16:49:57.004Z,24.39
2018-06-03T16:51:50.301Z,24.22
2018-06-03T16:52:50.262Z,24.27
2018-06-03T16:54:43.539Z,24.26
2018-06-03T16:55:43.467Z,24.24
2018-06-03T16:57:36.876Z,24.30
2018-06-03T16:58:36.716Z,24.36
2018-06-03T17:00:29.995Z,24.40
2018-06-03T17:01:29.920Z,24.49
2018-06-03T17:03:25.221Z,24.33
2018-06-03T17:04:25.146Z,24.37
2018-06-03T17:06:18.427Z,24.49
2018-06-03T17:07:18.374Z,24.52
2018-06-03T17:09:11.676Z,24.52
2018-06-03T17:10:11.611Z,24.61
2018-06-03T17:12:04.883Z,24.59
2018-06-03T17:13:04.833Z,24.64
2018-06-03T17:14:58.165Z,24.49
2018-06-03T17:15:58.067Z,24.21
2018-06-03T17:17:51.351Z,24.11
2018-06-03T17:18:51.296Z,24.11
2018-06-03T17:20:44.623Z,24.30
2018-06-03T17:21:44.532Z,24.37
2018-06-03T17:23:38.869Z,24.46
2018-06-03T17:24:38.768Z,24.46
2018-06-03T17:26:32.068Z,24.45
2018-06-03T17:27:32.011Z,24.36
2018-06-03T17:29:25.363Z,24.19
2018-06-03T17:30:25.288Z,24.17
2018-06-03T17:32:18.579Z,24.09
2018-06-03T17:33:18.523Z,24.00
2018-06-03T17:35:11.835Z,24.11
2018-06-03T17:36:11.759Z,24.12
2018-06-03T17:38:05.042Z,24.15
2018-06-03T17:39:04.992Z,24.15
2018-06-03T17:40:58.404Z,24.15
2018-06-03T17:41:58.228Z,24.14
2018-06-03T17:43:52.541Z,24.14
2018-06-03T17:44:52.461Z,24.19
2018-06-03T17:46:45.752Z,24.21
2018-06-03T17:47:45.707Z,24.09
2018-06-03T17:49:39.005Z,23.94
2018-06-03T17:50:38.932Z,23.96
2018-06-03T17:52:32.224Z,23.96
2018-06-03T17:53:32.168Z,23.94
2018-06-03T17:55:26.478Z,23.81
2018-06-03T17:56:26.404Z,23.71
2018-06-03T17:58:19.705Z,23.66
2018-06-03T17:59:19.630Z,23.57
2018-06-03T18:01:12.941Z,23.67
2018-06-03T18:02:12.864Z,23.60
2018-06-03T18:04:06.174Z,23.71
2018-06-03T18:05:06.099Z,23.72
2018-06-03T18:07:00.391Z,23.72
2018-06-03T18:08:00.331Z,23.67
2018-06-03T18:09:53.652Z,23.74
2018-06-03T18:10:53.575Z,23.72
2018-06-03T18:12:46.865Z,23.72
2018-06-03T18:13:46.811Z,23.70
2018-06-03T18:15:40.117Z,23.59
2018-06-03T18:16:40.047Z,23.64
2018-06-03T18:18:33.376Z,23.66
2018-06-03T18:19:33.295Z,23.63
2018-06-03T18:21:27.588Z,23.57
2018-06-03T18:22:27.599Z,23.55
2018-06-03T18:24:21.854Z,23.57
2018-06-03T18:25:21.762Z,23.45
2018-06-03T18:27:15.152Z,23.42
2018-06-03T18:28:14.995Z,23.40
2018-06-03T18:30:08.306Z,23.32
2018-06-03T18:31:08.231Z,23.45
2018-06-03T18:33:01.520Z,23.38
2018-06-03T18:34:01.465Z,23.29
2018-06-03T18:35:54.774Z,23.24